Ludivine F/v — FVXR — position and weather

sailwx.info

Track history (hours):
 
Tides and Currents Weather Stations Pressure Air Temp Water Temp Dewpoint Dewpoint Depression Visibility Wind Speed Wind Dir Waves Ship Positions

Ludivine F/v

Last reported at 2017-Nov-16 11:49 UTC. Time now 2017-Nov-21 23:18 UTC.
Position N 48°22' W 004°47'.

Length 16 m.

Type: Fishing. MMSI: 227988000.

Date/timePositionNaut miles runAvg speedWind from/ knotsBaromVisibWave heightAir tempDewpointWater temp
2017-Nov-16 11:49N 48°22' W 004°47'0 0.3
2017-Nov-16 11:30N 48°22' W 004°47'0 0.0
2017-Nov-16 11:00N 48°22' W 004°47'1 2.9
2017-Nov-16 10:30N 48°22' W 004°49'4 8.7
2017-Nov-16 10:00N 48°21' W 004°55'4 8.1
2017-Nov-16 09:30N 48°21' W 005°02'5 9.0
2017-Nov-16 08:57N 48°22' W 005°09'5 9.0
2017-Nov-16 08:24N 48°23' W 005°16'3 7.9
2017-Nov-16 08:00N 48°24' W 005°21'4 7.6
2017-Nov-16 07:28N 48°25' W 005°27'4 7.4
2017-Nov-16 06:58N 48°26' W 005°32'1 2.2
2017-Nov-16 06:24N 48°27' W 005°32'2 2.4
2017-Nov-16 05:37N 48°29' W 005°31'3 2.4
2017-Nov-16 04:26N 48°31' W 005°31'2 2.4
2017-Nov-16 03:37N 48°30' W 005°33'2 2.3
2017-Nov-16 02:56N 48°28' W 005°33'3 2.4
2017-Nov-16 01:42N 48°25' W 005°33'1 3.5
2017-Nov-16 01:30N 48°26' W 005°32'4 5.7
2017-Nov-16 00:53N 48°26' W 005°27'3 7.3
2017-Nov-16 00:24N 48°26' W 005°22'3 7.6
2017-Nov-16 00:00N 48°26' W 005°17'4 7.6
2017-Nov-15 23:30N 48°26' W 005°11'4 7.0
2017-Nov-15 23:00N 48°27' W 005°06'0 0.0
2017-Nov-15 22:30N 48°27' W 005°06'0 0.0
2017-Nov-15 22:00N 48°27' W 005°06'0 0.0
2017-Nov-15 21:30N 48°27' W 005°06'0 0.0
2017-Nov-15 21:00N 48°27' W 005°06'0 0.0
2017-Nov-15 20:29N 48°27' W 005°06'0 0.0
2017-Nov-15 20:00N 48°27' W 005°06'0 0.0
2017-Nov-15 19:30N 48°27' W 005°06'0 0.0
2017-Nov-15 19:00N 48°27' W 005°06'0 0.0
2017-Nov-15 18:29N 48°27' W 005°06'0 0.0
2017-Nov-15 17:59N 48°27' W 005°06'2 4.7
2017-Nov-15 17:30N 48°26' W 005°09'4 8.7
2017-Nov-15 17:00N 48°29' W 005°15'5 8.7
2017-Nov-15 16:28N 48°32' W 005°20'5 8.8
2017-Nov-15 15:56N 48°34' W 005°26'3 5.9
2017-Nov-15 15:27N 48°36' W 005°30'1 2.1
2017-Nov-15 14:51N 48°35' W 005°31'1 2.0
2017-Nov-15 14:30N 48°35' W 005°32'2 2.7
2017-Nov-15 13:51N 48°35' W 005°30'1 2.0
2017-Nov-15 13:20N 48°34' W 005°30'1 0.9
2017-Nov-15 12:23N 48°34' W 005°31'2 2.4
2017-Nov-15 11:44N 48°33' W 005°31'2 1.6
2017-Nov-15 10:44N 48°34' W 005°32'0 1.9
2017-Nov-15 10:29N 48°34' W 005°32'5 2.3
2017-Nov-15 08:22N 48°29' W 005°32'1 1.8
2017-Nov-15 07:56N 48°28' W 005°32'1 3.3
2017-Nov-15 07:30N 48°29' W 005°30'1 1.2
2017-Nov-15 06:57N 48°29' W 005°30'1 1.6
2017-Nov-15 06:20N 48°30' W 005°30'2 1.9
2017-Nov-15 05:26N 48°32' W 005°30'3 4.6
2017-Nov-15 04:48N 48°33' W 005°25'2 8.2
2017-Nov-15 04:30N 48°33' W 005°22'4 8.4
2017-Nov-15 04:00N 48°32' W 005°15'4 8.3
2017-Nov-15 03:28N 48°31' W 005°09'4 7.9
2017-Nov-15 03:00N 48°30' W 005°04'610.7
2017-Nov-15 02:27N 48°27' W 004°56'3 6.3
2017-Nov-15 02:00N 48°26' W 004°53'4 8.4
2017-Nov-15 01:30N 48°22' W 004°49'1 0.1
2017-Nov-14 12:20N 48°22' W 004°47'0 0.0
2017-Nov-14 11:59N 48°22' W 004°47'0 0.0
2017-Nov-14 11:23N 48°22' W 004°47'1 3.6
2017-Nov-14 11:00N 48°22' W 004°49'5 9.2
2017-Nov-14 10:30N 48°21' W 004°56'5 9.0
2017-Nov-14 10:00N 48°22' W 005°02'5 8.6
2017-Nov-14 09:27N 48°23' W 005°09'4 9.0
2017-Nov-14 08:58N 48°25' W 005°15'5 8.8
2017-Nov-14 08:24N 48°27' W 005°22'3 8.5
2017-Nov-14 08:00N 48°29' W 005°27'5 7.1
2017-Nov-14 07:18N 48°31' W 005°33'3 1.8
2017-Nov-14 05:35N 48°33' W 005°29'0 1.4
2017-Nov-14 05:25N 48°33' W 005°29'2 2.3
2017-Nov-14 04:21N 48°35' W 005°29'2 1.4
2017-Nov-14 03:07N 48°34' W 005°28'1 2.0
2017-Nov-14 02:42N 48°33' W 005°28'1 2.9
2017-Nov-14 02:30N 48°32' W 005°28'1 2.0
2017-Nov-14 01:55N 48°31' W 005°28'1 1.9
2017-Nov-14 01:23N 48°30' W 005°29'2 3.3
2017-Nov-14 00:52N 48°29' W 005°26'3 8.1
2017-Nov-14 00:28N 48°28' W 005°22'4 8.0
2017-Nov-13 23:59N 48°27' W 005°16'4 8.7
2017-Nov-13 23:31N 48°26' W 005°10'3 5.3
2017-Nov-13 23:00N 48°27' W 005°06'0 0.0
2017-Nov-13 22:24N 48°27' W 005°06'0 0.0
2017-Nov-13 21:58N 48°27' W 005°06'10 0.5
2017-Nov-13 02:00N 48°25' W 004°52'4 7.3
2017-Nov-13 01:31N 48°22' W 004°48'1 0.1
2017-Nov-12 13:14N 48°22' W 004°47'0 0.4
2017-Nov-12 13:00N 48°22' W 004°47'3 6.4
2017-Nov-12 12:31N 48°24' W 004°50'5 9.3
2017-Nov-12 12:00N 48°27' W 004°56'5 9.7
2017-Nov-12 11:29N 48°30' W 005°02'510.1
2017-Nov-12 10:59N 48°31' W 005°09'5 9.7
2017-Nov-12 10:31N 48°31' W 005°16'5 9.4
2017-Nov-12 09:59N 48°32' W 005°24'4 9.3
2017-Nov-12 09:30N 48°33' W 005°30'0 0.3
2017-Nov-12 07:56N 48°33' W 005°31'2 1.0
2017-Nov-12 05:42N 48°34' W 005°33'6 6.1
2017-Nov-12 04:41N 48°28' W 005°33'6 1.9
2017-Nov-12 01:48N 48°34' W 005°31'4 7.9
2017-Nov-12 01:18N 48°33' W 005°26'2 8.0
2017-Nov-12 01:00N 48°32' W 005°22'4 7.8
2017-Nov-12 00:30N 48°31' W 005°16'4 7.8
2017-Nov-12 00:01N 48°31' W 005°11'4 7.9
2017-Nov-11 23:30N 48°30' W 005°05'2 3.8
2017-Nov-11 23:00N 48°28' W 005°03'0 0.0
2017-Nov-11 22:30N 48°28' W 005°03'0 0.0
2017-Nov-11 21:57N 48°28' W 005°03'0 0.0
2017-Nov-11 21:29N 48°28' W 005°03'0 0.0
2017-Nov-11 20:58N 48°28' W 005°03'0 0.0
2017-Nov-11 20:29N 48°28' W 005°03'0 0.0
2017-Nov-11 19:59N 48°28' W 005°03'2 3.2
2017-Nov-11 19:30N 48°30' W 005°04'510.0
2017-Nov-11 18:58N 48°30' W 005°11'4 8.8
2017-Nov-11 18:30N 48°30' W 005°18'4 8.7
2017-Nov-11 18:00N 48°30' W 005°24'7 5.9
2017-Nov-11 16:51N 48°36' W 005°28'4 7.6
2017-Nov-11 16:23N 48°32' W 005°29'4 6.6
2017-Nov-11 15:48N 48°29' W 005°30'2 5.2
2017-Nov-11 15:27N 48°28' W 005°27'3 7.4
2017-Nov-11 15:00N 48°27' W 005°23'4 7.3
2017-Nov-11 14:30N 48°27' W 005°17'3 6.8
2017-Nov-11 14:00N 48°26' W 005°12'3 6.6
2017-Nov-11 13:30N 48°25' W 005°07'4 8.0
2017-Nov-11 13:01N 48°25' W 005°02'4 8.2
2017-Nov-11 12:31N 48°24' W 004°55'4 7.3
2017-Nov-11 12:00N 48°23' W 004°51'3 0.1
2017-Nov-10 08:48N 48°22' W 004°47'0 0.3
2017-Nov-10 08:31N 48°22' W 004°47'1 1.2
2017-Nov-10 08:01N 48°22' W 004°48'4 9.0
2017-Nov-10 07:31N 48°25' W 004°52'4 8.7
2017-Nov-10 07:00N 48°28' W 004°57'510.2
2017-Nov-10 06:30N 48°30' W 005°04'611.2
2017-Nov-10 06:00N 48°29' W 005°12'5 9.4
2017-Nov-10 05:29N 48°29' W 005°20'4 9.2
2017-Nov-10 05:00N 48°28' W 005°26'5 9.0
2017-Nov-10 04:29N 48°28' W 005°33'3 1.4
2017-Nov-10 02:21N 48°25' W 005°35'3 8.5
2017-Nov-10 02:00N 48°25' W 005°30'4 8.6
2017-Nov-10 01:29N 48°25' W 005°24'4 8.4
2017-Nov-10 01:00N 48°26' W 005°17'4 7.7
2017-Nov-10 00:30N 48°26' W 005°12'4 7.6
2017-Nov-10 00:00N 48°27' W 005°06'0 0.0
2017-Nov-09 23:30N 48°27' W 005°06'0 0.0
2017-Nov-09 23:00N 48°27' W 005°06'0 0.0
2017-Nov-09 22:30N 48°27' W 005°06'0 0.0
2017-Nov-09 22:00N 48°27' W 005°06'0 0.0
2017-Nov-09 21:30N 48°27' W 005°06'0 0.0
2017-Nov-09 21:00N 48°27' W 005°06'0 0.0
2017-Nov-09 20:30N 48°27' W 005°06'0 0.0
2017-Nov-09 20:00N 48°27' W 005°06'0 0.0
2017-Nov-09 19:30N 48°27' W 005°06'0 0.0
2017-Nov-09 19:00N 48°27' W 005°06'1 1.4
2017-Nov-09 18:30N 48°27' W 005°07'4 7.3
2017-Nov-09 17:59N 48°26' W 005°13'4 8.3
2017-Nov-09 17:30N 48°27' W 005°19'4 8.5
2017-Nov-09 17:00N 48°28' W 005°25'5 1.7
2017-Nov-09 13:51N 48°28' W 005°33'410.7
2017-Nov-09 13:30N 48°28' W 005°28'3 5.9
2017-Nov-09 13:00N 48°29' W 005°23'4 8.1
2017-Nov-09 12:30N 48°29' W 005°17'4 8.2
2017-Nov-09 12:00N 48°29' W 005°11'5 9.5
2017-Nov-09 11:30N 48°30' W 005°04'4 7.9
2017-Nov-09 11:00N 48°28' W 004°58'4 7.7
2017-Nov-09 10:31N 48°26' W 004°54'3 6.6
2017-Nov-09 10:00N 48°23' W 004°50'2 4.9
2017-Nov-09 09:30N 48°22' W 004°48'  
Track history (hours):
 
Tides and Currents Weather Stations Pressure Air Temp Water Temp Dewpoint Dewpoint Depression Visibility Wind Speed Wind Dir Waves Ship Positions

Ludivine F/v

Last reported at 2017-Nov-16 11:49 UTC. Time now 2017-Nov-21 23:18 UTC.
Position N 48°22' W 004°47'.

Length 16 m.

Type: Fishing. MMSI: 227988000.

Date/timePositionNaut miles runAvg speedWind from/ knotsBaromVisibWave heightAir tempDewpointWater temp
2017-Nov-16 11:49N 48°22' W 004°47'0 0.3
2017-Nov-16 11:30N 48°22' W 004°47'0 0.0
2017-Nov-16 11:00N 48°22' W 004°47'1 2.9
2017-Nov-16 10:30N 48°22' W 004°49'4 8.7
2017-Nov-16 10:00N 48°21' W 004°55'4 8.1
2017-Nov-16 09:30N 48°21' W 005°02'5 9.0
2017-Nov-16 08:57N 48°22' W 005°09'5 9.0
2017-Nov-16 08:24N 48°23' W 005°16'3 7.9
2017-Nov-16 08:00N 48°24' W 005°21'4 7.6
2017-Nov-16 07:28N 48°25' W 005°27'4 7.4
2017-Nov-16 06:58N 48°26' W 005°32'1 2.2
2017-Nov-16 06:24N 48°27' W 005°32'2 2.4
2017-Nov-16 05:37N 48°29' W 005°31'3 2.4
2017-Nov-16 04:26N 48°31' W 005°31'2 2.4
2017-Nov-16 03:37N 48°30' W 005°33'2 2.3
2017-Nov-16 02:56N 48°28' W 005°33'3 2.4
2017-Nov-16 01:42N 48°25' W 005°33'1 3.5
2017-Nov-16 01:30N 48°26' W 005°32'4 5.7
2017-Nov-16 00:53N 48°26' W 005°27'3 7.3
2017-Nov-16 00:24N 48°26' W 005°22'3 7.6
2017-Nov-16 00:00N 48°26' W 005°17'4 7.6
2017-Nov-15 23:30N 48°26' W 005°11'4 7.0
2017-Nov-15 23:00N 48°27' W 005°06'0 0.0
2017-Nov-15 22:30N 48°27' W 005°06'0 0.0
2017-Nov-15 22:00N 48°27' W 005°06'0 0.0
2017-Nov-15 21:30N 48°27' W 005°06'0 0.0
2017-Nov-15 21:00N 48°27' W 005°06'0 0.0
2017-Nov-15 20:29N 48°27' W 005°06'0 0.0
2017-Nov-15 20:00N 48°27' W 005°06'0 0.0
2017-Nov-15 19:30N 48°27' W 005°06'0 0.0
2017-Nov-15 19:00N 48°27' W 005°06'0 0.0
2017-Nov-15 18:29N 48°27' W 005°06'0 0.0
2017-Nov-15 17:59N 48°27' W 005°06'2 4.7
2017-Nov-15 17:30N 48°26' W 005°09'4 8.7
2017-Nov-15 17:00N 48°29' W 005°15'5 8.7
2017-Nov-15 16:28N 48°32' W 005°20'5 8.8
2017-Nov-15 15:56N 48°34' W 005°26'3 5.9
2017-Nov-15 15:27N 48°36' W 005°30'1 2.1
2017-Nov-15 14:51N 48°35' W 005°31'1 2.0
2017-Nov-15 14:30N 48°35' W 005°32'2 2.7
2017-Nov-15 13:51N 48°35' W 005°30'1 2.0
2017-Nov-15 13:20N 48°34' W 005°30'1 0.9
2017-Nov-15 12:23N 48°34' W 005°31'2 2.4
2017-Nov-15 11:44N 48°33' W 005°31'2 1.6
2017-Nov-15 10:44N 48°34' W 005°32'0 1.9
2017-Nov-15 10:29N 48°34' W 005°32'5 2.3
2017-Nov-15 08:22N 48°29' W 005°32'1 1.8
2017-Nov-15 07:56N 48°28' W 005°32'1 3.3
2017-Nov-15 07:30N 48°29' W 005°30'1 1.2
2017-Nov-15 06:57N 48°29' W 005°30'1 1.6
2017-Nov-15 06:20N 48°30' W 005°30'2 1.9
2017-Nov-15 05:26N 48°32' W 005°30'3 4.6
2017-Nov-15 04:48N 48°33' W 005°25'2 8.2
2017-Nov-15 04:30N 48°33' W 005°22'4 8.4
2017-Nov-15 04:00N 48°32' W 005°15'4 8.3
2017-Nov-15 03:28N 48°31' W 005°09'4 7.9
2017-Nov-15 03:00N 48°30' W 005°04'610.7
2017-Nov-15 02:27N 48°27' W 004°56'3 6.3
2017-Nov-15 02:00N 48°26' W 004°53'4 8.4
2017-Nov-15 01:30N 48°22' W 004°49'1 0.1
2017-Nov-14 12:20N 48°22' W 004°47'0 0.0
2017-Nov-14 11:59N 48°22' W 004°47'0 0.0
2017-Nov-14 11:23N 48°22' W 004°47'1 3.6
2017-Nov-14 11:00N 48°22' W 004°49'5 9.2
2017-Nov-14 10:30N 48°21' W 004°56'5 9.0
2017-Nov-14 10:00N 48°22' W 005°02'5 8.6
2017-Nov-14 09:27N 48°23' W 005°09'4 9.0
2017-Nov-14 08:58N 48°25' W 005°15'5 8.8
2017-Nov-14 08:24N 48°27' W 005°22'3 8.5
2017-Nov-14 08:00N 48°29' W 005°27'5 7.1
2017-Nov-14 07:18N 48°31' W 005°33'3 1.8
2017-Nov-14 05:35N 48°33' W 005°29'0 1.4
2017-Nov-14 05:25N 48°33' W 005°29'2 2.3
2017-Nov-14 04:21N 48°35' W 005°29'2 1.4
2017-Nov-14 03:07N 48°34' W 005°28'1 2.0
2017-Nov-14 02:42N 48°33' W 005°28'1 2.9
2017-Nov-14 02:30N 48°32' W 005°28'1 2.0
2017-Nov-14 01:55N 48°31' W 005°28'1 1.9
2017-Nov-14 01:23N 48°30' W 005°29'2 3.3
2017-Nov-14 00:52N 48°29' W 005°26'3 8.1
2017-Nov-14 00:28N 48°28' W 005°22'4 8.0
2017-Nov-13 23:59N 48°27' W 005°16'4 8.7
2017-Nov-13 23:31N 48°26' W 005°10'3 5.3
2017-Nov-13 23:00N 48°27' W 005°06'0 0.0
2017-Nov-13 22:24N 48°27' W 005°06'0 0.0
2017-Nov-13 21:58N 48°27' W 005°06'10 0.5
2017-Nov-13 02:00N 48°25' W 004°52'4 7.3
2017-Nov-13 01:31N 48°22' W 004°48'1 0.1
2017-Nov-12 13:14N 48°22' W 004°47'0 0.4
2017-Nov-12 13:00N 48°22' W 004°47'3 6.4
2017-Nov-12 12:31N 48°24' W 004°50'5 9.3
2017-Nov-12 12:00N 48°27' W 004°56'5 9.7
2017-Nov-12 11:29N 48°30' W 005°02'510.1
2017-Nov-12 10:59N 48°31' W 005°09'5 9.7
2017-Nov-12 10:31N 48°31' W 005°16'5 9.4
2017-Nov-12 09:59N 48°32' W 005°24'4 9.3
2017-Nov-12 09:30N 48°33' W 005°30'0 0.3
2017-Nov-12 07:56N 48°33' W 005°31'2 1.0
2017-Nov-12 05:42N 48°34' W 005°33'6 6.1
2017-Nov-12 04:41N 48°28' W 005°33'6 1.9
2017-Nov-12 01:48N 48°34' W 005°31'4 7.9
2017-Nov-12 01:18N 48°33' W 005°26'2 8.0
2017-Nov-12 01:00N 48°32' W 005°22'4 7.8
2017-Nov-12 00:30N 48°31' W 005°16'4 7.8
2017-Nov-12 00:01N 48°31' W 005°11'4 7.9
2017-Nov-11 23:30N 48°30' W 005°05'2 3.8
2017-Nov-11 23:00N 48°28' W 005°03'0 0.0
2017-Nov-11 22:30N 48°28' W 005°03'0 0.0
2017-Nov-11 21:57N 48°28' W 005°03'0 0.0
2017-Nov-11 21:29N 48°28' W 005°03'0 0.0
2017-Nov-11 20:58N 48°28' W 005°03'0 0.0
2017-Nov-11 20:29N 48°28' W 005°03'0 0.0
2017-Nov-11 19:59N 48°28' W 005°03'2 3.2
2017-Nov-11 19:30N 48°30' W 005°04'510.0
2017-Nov-11 18:58N 48°30' W 005°11'4 8.8
2017-Nov-11 18:30N 48°30' W 005°18'4 8.7
2017-Nov-11 18:00N 48°30' W 005°24'7 5.9
2017-Nov-11 16:51N 48°36' W 005°28'4 7.6
2017-Nov-11 16:23N 48°32' W 005°29'4 6.6
2017-Nov-11 15:48N 48°29' W 005°30'2 5.2
2017-Nov-11 15:27N 48°28' W 005°27'3 7.4
2017-Nov-11 15:00N 48°27' W 005°23'4 7.3
2017-Nov-11 14:30N 48°27' W 005°17'3 6.8
2017-Nov-11 14:00N 48°26' W 005°12'3 6.6
2017-Nov-11 13:30N 48°25' W 005°07'4 8.0
2017-Nov-11 13:01N 48°25' W 005°02'4 8.2
2017-Nov-11 12:31N 48°24' W 004°55'4 7.3
2017-Nov-11 12:00N 48°23' W 004°51'3 0.1
2017-Nov-10 08:48N 48°22' W 004°47'0 0.3
2017-Nov-10 08:31N 48°22' W 004°47'1 1.2
2017-Nov-10 08:01N 48°22' W 004°48'4 9.0
2017-Nov-10 07:31N 48°25' W 004°52'4 8.7
2017-Nov-10 07:00N 48°28' W 004°57'510.2
2017-Nov-10 06:30N 48°30' W 005°04'611.2
2017-Nov-10 06:00N 48°29' W 005°12'5 9.4
2017-Nov-10 05:29N 48°29' W 005°20'4 9.2
2017-Nov-10 05:00N 48°28' W 005°26'5 9.0
2017-Nov-10 04:29N 48°28' W 005°33'3 1.4
2017-Nov-10 02:21N 48°25' W 005°35'3 8.5
2017-Nov-10 02:00N 48°25' W 005°30'4 8.6
2017-Nov-10 01:29N 48°25' W 005°24'4 8.4
2017-Nov-10 01:00N 48°26' W 005°17'4 7.7
2017-Nov-10 00:30N 48°26' W 005°12'4 7.6
2017-Nov-10 00:00N 48°27' W 005°06'0 0.0
2017-Nov-09 23:30N 48°27' W 005°06'0 0.0
2017-Nov-09 23:00N 48°27' W 005°06'0 0.0
2017-Nov-09 22:30N 48°27' W 005°06'0 0.0
2017-Nov-09 22:00N 48°27' W 005°06'0 0.0
2017-Nov-09 21:30N 48°27' W 005°06'0 0.0
2017-Nov-09 21:00N 48°27' W 005°06'0 0.0
2017-Nov-09 20:30N 48°27' W 005°06'0 0.0
2017-Nov-09 20:00N 48°27' W 005°06'0 0.0
2017-Nov-09 19:30N 48°27' W 005°06'0 0.0
2017-Nov-09 19:00N 48°27' W 005°06'1 1.4
2017-Nov-09 18:30N 48°27' W 005°07'4 7.3
2017-Nov-09 17:59N 48°26' W 005°13'4 8.3
2017-Nov-09 17:30N 48°27' W 005°19'4 8.5
2017-Nov-09 17:00N 48°28' W 005°25'5 1.7
2017-Nov-09 13:51N 48°28' W 005°33'410.7
2017-Nov-09 13:30N 48°28' W 005°28'3 5.9
2017-Nov-09 13:00N 48°29' W 005°23'4 8.1
2017-Nov-09 12:30N 48°29' W 005°17'4 8.2
2017-Nov-09 12:00N 48°29' W 005°11'5 9.5
2017-Nov-09 11:30N 48°30' W 005°04'4 7.9
2017-Nov-09 11:00N 48°28' W 004°58'4 7.7
2017-Nov-09 10:31N 48°26' W 004°54'3 6.6
2017-Nov-09 10:00N 48°23' W 004°50'2 4.9
2017-Nov-09 09:30N 48°22' W 004°48'  

Dump ship's entire track history